Time;durP1;ratioP1;P1;durP2;ratioP2;P2;SDS_P1;SDS_P2;PMS_P1;PMS_P2;Temp;Humidity;BMP_temperature;BMP_pressure;BME280_temperature;BME280_humidity;BME280_pressure;Samples;Min_cycle;Max_cycle;Signal;HPM_P1;HPM_P2
2022/02/18 00:01:39;;;;;;;18.02;5.22;;;;;;;6.50;86.96;100565.09;5018220;28;20030;-83
2022/02/18 00:04:06;;;;;;;21.20;5.72;;;;;;;6.54;86.92;100566.47;5032817;28;20045;-84
2022/02/18 00:06:33;;;;;;;28.70;6.03;;;;;;;6.65;86.91;100587.97;5016573;28;20074;-83
2022/02/18 00:09:00;;;;;;;20.95;5.57;;;;;;;6.72;86.86;100579.66;5024243;28;20026;-83
2022/02/18 00:11:26;;;;;;;22.23;5.47;;;;;;;6.71;86.38;100572.81;5036384;28;20033;-83
2022/02/18 00:13:56;;;;;;;32.17;6.28;;;;;;;6.74;86.18;100569.94;5021029;28;20844;-82
2022/02/18 00:16:23;;;;;;;25.35;6.03;;;;;;;6.65;86.26;100556.78;5008686;28;20382;-83
2022/02/18 00:18:49;;;;;;;20.80;5.80;;;;;;;6.79;86.37;100567.75;5007816;28;20049;-84
2022/02/18 00:21:16;;;;;;;26.73;5.63;;;;;;;6.90;85.92;100573.69;5010005;28;20050;-84
2022/02/18 00:23:43;;;;;;;28.67;6.25;;;;;;;6.87;85.74;100579.16;5014614;28;20070;-84
2022/02/18 00:26:11;;;;;;;26.58;5.25;;;;;;;6.97;85.16;100582.59;5005574;28;20110;-84
2022/02/18 00:28:38;;;;;;;25.95;5.95;;;;;;;7.01;85.24;100579.72;5016133;28;20062;-82
2022/02/18 00:31:06;;;;;;;20.85;5.35;;;;;;;7.04;85.12;100584.69;5016860;28;20050;-83
2022/02/18 00:33:33;;;;;;;21.35;5.20;;;;;;;7.05;84.84;100576.72;5018437;28;20042;-82
2022/02/18 00:35:59;;;;;;;18.25;5.18;;;;;;;7.01;84.72;100559.75;5018526;28;20480;-81
2022/02/18 00:44:18;;;;;;;22.55;5.43;;;;;;;6.99;84.59;100561.66;5021118;28;20057;-83
2022/02/18 00:47:15;;;;;;;26.73;6.22;;;;;;;7.09;84.58;100567.66;5020578;28;20049;-84
2022/02/18 00:53:06;;;;;;;28.05;5.82;;;;;;;6.98;84.71;100545.22;4998103;28;20058;-84
2022/02/18 00:59:08;;;;;;;26.00;5.45;;;;;;;7.15;84.36;100568.91;4985863;28;20054;-82
2022/02/18 01:05:16;;;;;;;26.77;5.38;;;;;;;7.09;84.26;100564.28;4996374;28;20061;-85
2022/02/18 01:07:52;;;;;;;27.38;5.75;;;;;;;7.06;84.71;100554.97;4997559;28;20079;-83
2022/02/18 01:10:27;;;;;;;26.45;5.55;;;;;;;7.21;84.34;100576.19;5015402;28;20149;-84
2022/02/18 01:12:55;;;;;;;29.02;5.93;;;;;;;7.10;84.41;100560.69;5007076;28;20493;-86
2022/02/18 01:15:24;;;;;;;27.35;5.55;;;;;;;7.12;84.15;100558.78;5008652;28;20485;-87
2022/02/18 01:18:01;;;;;;;21.92;5.15;;;;;;;7.21;83.96;100571.81;5015203;28;20045;-82
2022/02/18 01:21:10;;;;;;;21.20;5.75;;;;;;;7.05;84.45;100535.09;5016880;28;20082;-83
2022/02/18 01:23:47;;;;;;;23.38;5.72;;;;;;;6.94;84.71;100527.41;5011429;28;20042;-85
2022/02/18 01:26:28;;;;;;;28.17;5.28;;;;;;;6.81;85.59;100522.47;5000752;28;20081;-86
2022/02/18 01:29:10;;;;;;;18.00;4.95;;;;;;;6.86;85.71;100533.28;5010486;28;20061;-85
2022/02/18 01:31:44;;;;;;;23.92;5.68;;;;;;;6.75;86.34;100533.41;5002677;28;20054;-87
2022/02/18 01:34:25;;;;;;;31.80;6.45;;;;;;;6.79;86.13;100539.97;5012814;28;20136;-86
2022/02/18 01:37:33;;;;;;;24.25;5.88;;;;;;;6.78;86.04;100543.53;5004056;28;20109;-86
2022/02/18 01:40:07;;;;;;;23.17;5.25;;;;;;;6.71;86.63;100536.41;4986572;28;20058;-86
2022/02/18 01:42:33;;;;;;;25.45;6.50;;;;;;;6.61;86.36;100520.78;5018063;28;20179;-87
2022/02/18 01:45:00;;;;;;;28.33;5.55;;;;;;;6.70;86.73;100522.56;5009513;28;20105;-87
2022/02/18 01:47:27;;;;;;;28.52;5.75;;;;;;;6.75;86.71;100512.59;5008594;28;20377;-87
2022/02/18 01:49:58;;;;;;;19.15;5.25;;;;;;;6.86;86.41;100503.84;5017341;28;20096;-83
2022/02/18 01:52:33;;;;;;;31.88;6.10;;;;;;;6.68;87.09;100485.47;5001098;28;20060;-86
2022/02/18 01:55:00;;;;;;;24.67;6.10;;;;;;;6.84;86.33;100503.16;5010864;28;20096;-85
2022/02/18 01:57:29;;;;;;;23.85;5.65;;;;;;;6.81;86.30;100487.84;5009372;28;20165;-87
2022/02/18 01:59:55;;;;;;;31.55;6.43;;;;;;;6.80;86.69;100489.59;5016031;28;20049;-85
2022/02/18 02:02:22;;;;;;;32.50;6.05;;;;;;;6.66;87.01;100467.41;5012822;28;20123;-85
2022/02/18 02:04:49;;;;;;;29.88;6.75;;;;;;;6.76;87.48;100472.63;5017976;28;20050;-88
2022/02/18 02:07:15;;;;;;;26.80;6.15;;;;;;;6.74;87.13;100471.13;5017140;28;20106;-89
2022/02/18 02:09:42;;;;;;;18.80;6.07;;;;;;;6.73;86.81;100462.50;5009884;28;20136;-87
2022/02/18 02:12:10;;;;;;;31.25;6.13;;;;;;;6.75;87.24;100465.78;5014490;28;20135;-85
2022/02/18 02:14:38;;;;;;;21.02;5.50;;;;;;;6.79;86.96;100464.56;5025725;28;20062;-85
2022/02/18 02:17:05;;;;;;;20.55;5.20;;;;;;;6.79;86.98;100479.34;5028030;28;20050;-85
2022/02/18 02:19:31;;;;;;;30.77;6.32;;;;;;;6.85;86.82;100486.59;5033101;28;20060;-84
2022/02/18 02:21:58;;;;;;;36.00;7.10;;;;;;;6.82;87.03;100477.28;5028311;28;20120;-86
2022/02/18 02:24:26;;;;;;;21.65;5.93;;;;;;;6.89;86.75;100472.38;5024103;28;20049;-85
2022/02/18 02:26:53;;;;;;;28.85;6.18;;;;;;;6.82;86.71;100446.09;5020706;28;20133;-84
2022/02/18 02:29:20;;;;;;;23.85;6.53;;;;;;;6.91;86.66;100473.88;5022570;28;20046;-85
2022/02/18 02:31:47;;;;;;;27.67;5.57;;;;;;;6.83;86.28;100450.34;5033562;28;20062;-83
2022/02/18 02:34:14;;;;;;;29.75;6.40;;;;;;;6.96;86.17;100463.06;5032937;28;20097;-82
2022/02/18 02:36:42;;;;;;;36.00;7.68;;;;;;;6.94;86.53;100447.59;5031046;28;20108;-82
2022/02/18 02:39:17;;;;;;;30.25;5.97;;;;;;;6.94;85.49;100444.19;5029357;28;20057;-82
2022/02/18 02:41:45;;;;;;;24.42;5.50;;;;;;;6.89;85.85;100431.59;5024375;28;20433;-83
2022/02/18 02:44:12;;;;;;;22.52;6.07;;;;;;;6.82;86.07;100425.28;5019934;28;20053;-83
2022/02/18 02:46:39;;;;;;;27.55;5.63;;;;;;;6.96;86.00;100437.06;5021934;28;20054;-81
2022/02/18 02:49:06;;;;;;;23.80;5.80;;;;;;;7.04;85.20;100431.16;5026670;28;20141;-80
2022/02/18 02:51:33;;;;;;;24.42;6.40;;;;;;;7.03;85.50;100432.13;5029475;28;20413;-83
2022/02/18 02:54:00;;;;;;;22.33;5.28;;;;;;;6.93;85.38;100417.34;5028522;28;20117;-83
2022/02/18 02:56:28;;;;;;;25.17;5.50;;;;;;;6.96;85.12;100401.47;5027680;28;20176;-82
2022/02/18 02:58:56;;;;;;;23.83;5.25;;;;;;;7.12;84.60;100405.25;5027552;28;20045;-84
2022/02/18 03:01:25;;;;;;;25.02;5.40;;;;;;;7.14;84.59;100411.16;5028568;28;20113;-83
2022/02/18 03:03:52;;;;;;;24.13;4.88;;;;;;;6.93;84.67;100375.72;5020614;28;20396;-83
2022/02/18 03:06:21;;;;;;;23.30;5.20;;;;;;;7.07;84.64;100384.88;5017822;28;20149;-82
2022/02/18 03:08:49;;;;;;;27.60;5.30;;;;;;;7.04;84.94;100398.19;5018431;28;20081;-83
2022/02/18 03:11:17;;;;;;;25.63;6.63;;;;;;;6.99;84.98;100401.19;5018563;28;20195;-82
2022/02/18 03:13:46;;;;;;;18.10;4.55;;;;;;;7.01;84.98;100377.63;5017674;28;20065;-81
2022/02/18 03:16:15;;;;;;;22.10;5.30;;;;;;;6.89;85.22;100383.94;5017881;28;20208;-82
2022/02/18 03:18:42;;;;;;;23.30;5.30;;;;;;;6.89;85.69;100378.75;5018372;28;20097;-82
2022/02/18 03:21:09;;;;;;;22.08;5.15;;;;;;;6.87;85.46;100365.06;5018183;28;20145;-82
2022/02/18 03:23:37;;;;;;;20.70;5.20;;;;;;;6.83;85.94;100354.09;5017968;28;20050;-82
2022/02/18 03:26:04;;;;;;;26.77;6.93;;;;;;;6.84;85.58;100355.75;5017847;28;20149;-82
2022/02/18 03:28:30;;;;;;;20.33;4.80;;;;;;;6.89;85.08;100337.94;5017790;28;20085;-82
2022/02/18 03:30:58;;;;;;;19.50;5.35;;;;;;;6.87;85.30;100342.47;5018473;28;20057;-83
2022/02/18 03:33:26;;;;;;;19.23;4.82;;;;;;;6.88;84.83;100310.28;5018877;28;20120;-83
2022/02/18 03:35:54;;;;;;;29.17;5.38;;;;;;;6.91;84.89;100319.59;5027091;28;20109;-81
2022/02/18 03:38:20;;;;;;;19.45;4.78;;;;;;;6.93;84.34;100312.47;5030706;28;20096;-82
2022/02/18 03:40:47;;;;;;;19.38;4.70;;;;;;;6.90;84.77;100312.75;5031730;28;20081;-81
2022/02/18 03:43:14;;;;;;;22.73;5.25;;;;;;;6.93;84.37;100305.50;5019905;28;20054;-82
2022/02/18 03:45:40;;;;;;;24.48;4.95;;;;;;;6.97;84.19;100314.66;5017116;28;20061;-82
2022/02/18 03:48:07;;;;;;;19.48;4.75;;;;;;;6.95;84.42;100305.34;5016805;28;20089;-84
2022/02/18 03:50:35;;;;;;;19.17;4.70;;;;;;;6.88;84.17;100299.88;5017724;28;20085;-83
2022/02/18 03:53:03;;;;;;;18.50;5.30;;;;;;;6.95;83.68;100295.78;5019534;28;20132;-84
2022/02/18 03:55:29;;;;;;;23.48;5.43;;;;;;;6.90;83.80;100290.16;5019038;28;20060;-84
2022/02/18 03:57:56;;;;;;;24.23;5.30;;;;;;;6.89;83.74;100285.09;5019048;28;20089;-83
2022/02/18 04:00:23;;;;;;;20.05;5.20;;;;;;;6.90;83.96;100286.75;5018071;28;20501;-83
2022/02/18 04:02:49;;;;;;;20.80;4.80;;;;;;;6.93;83.77;100282.09;5017951;28;20457;-82
2022/02/18 04:05:16;;;;;;;21.67;4.70;;;;;;;6.88;83.66;100267.84;5017269;28;20210;-82
2022/02/18 04:07:44;;;;;;;19.73;4.65;;;;;;;6.92;83.02;100270.03;5018140;28;20133;-82
2022/02/18 04:10:11;;;;;;;23.08;5.22;;;;;;;6.83;83.87;100257.06;5018324;28;20524;-82
2022/02/18 04:12:37;;;;;;;19.55;4.60;;;;;;;6.82;83.62;100248.44;5016016;28;20054;-83
2022/02/18 04:15:05;;;;;;;21.27;5.70;;;;;;;6.80;83.63;100255.56;5017228;28;20050;-83
2022/02/18 04:17:32;;;;;;;20.38;4.53;;;;;;;6.83;83.45;100255.28;5017808;28;20077;-83
2022/02/18 04:19:59;;;;;;;26.70;5.45;;;;;;;6.83;83.40;100255.28;5018926;28;20366;-84
2022/02/18 04:22:26;;;;;;;17.35;4.90;;;;;;;6.85;83.40;100242.94;5019989;28;20114;-84
2022/02/18 04:24:54;;;;;;;24.90;5.43;;;;;;;6.82;83.56;100221.59;5019214;28;20080;-83
2022/02/18 04:27:21;;;;;;;17.85;4.47;;;;;;;6.80;83.63;100229.53;5017735;28;20077;-84
2022/02/18 04:29:47;;;;;;;22.60;5.18;;;;;;;6.85;83.78;100229.94;5017918;28;20073;-84
2022/02/18 04:32:14;;;;;;;22.15;4.78;;;;;;;6.91;83.29;100226.78;5017778;28;20134;-84
2022/02/18 04:34:41;;;;;;;16.58;4.85;;;;;;;6.85;83.26;100216.13;5017133;28;20114;-84
2022/02/18 04:37:08;;;;;;;25.27;5.50;;;;;;;6.80;83.14;100208.75;5017402;28;20467;-84
2022/02/18 04:39:34;;;;;;;15.57;4.65;;;;;;;6.68;83.21;100193.44;5018433;28;20080;-83
2022/02/18 04:42:03;;;;;;;17.10;4.82;;;;;;;6.65;83.29;100174.56;5018666;28;20076;-83
2022/02/18 04:44:30;;;;;;;22.17;4.57;;;;;;;6.76;83.25;100186.59;5016614;28;20064;-83
2022/02/18 04:46:57;;;;;;;21.42;4.97;;;;;;;6.72;82.88;100159.22;5016104;28;20049;-83
2022/02/18 04:49:23;;;;;;;20.73;5.90;;;;;;;6.80;82.22;100158.50;5014265;28;20077;-82
2022/02/18 04:51:53;;;;;;;14.75;4.90;;;;;;;6.81;82.47;100152.34;5021702;28;20081;-83
2022/02/18 04:54:20;;;;;;;20.10;4.70;;;;;;;6.85;82.46;100164.94;5018534;28;20073;-82
2022/02/18 04:56:46;;;;;;;19.45;5.43;;;;;;;6.85;82.49;100148.50;5019834;28;20572;-83
2022/02/18 04:59:16;;;;;;;19.92;4.57;;;;;;;6.93;81.85;100146.00;5017948;28;20057;-83
2022/02/18 05:01:43;;;;;;;18.65;4.50;;;;;;;6.94;81.78;100140.66;5018659;28;20062;-82
2022/02/18 05:04:10;;;;;;;17.05;5.68;;;;;;;6.99;81.25;100138.44;5017931;28;20058;-83
2022/02/18 05:06:36;;;;;;;20.20;4.53;;;;;;;6.96;81.22;100125.72;5018525;28;20460;-83
2022/02/18 05:09:03;;;;;;;20.23;5.07;;;;;;;6.93;81.61;100125.19;5018188;28;20129;-82
2022/02/18 05:11:30;;;;;;;16.77;4.07;;;;;;;6.92;81.81;100119.19;5016467;28;20105;-82
2022/02/18 05:13:57;;;;;;;15.93;5.00;;;;;;;6.90;81.78;100112.47;5017958;28;20109;-84
2022/02/18 05:16:25;;;;;;;20.98;4.78;;;;;;;6.84;82.23;100106.06;5018261;28;20045;-83
2022/02/18 05:18:54;;;;;;;17.90;4.85;;;;;;;6.81;82.52;100084.75;5017583;28;20099;-83
2022/02/18 05:21:21;;;;;;;21.17;5.18;;;;;;;6.78;82.58;100077.22;5024242;28;20046;-82
2022/02/18 05:23:47;;;;;;;19.63;4.65;;;;;;;6.80;83.08;100083.91;5024384;28;20116;-84
2022/02/18 05:26:15;;;;;;;20.52;5.45;;;;;;;6.67;82.93;100041.84;5020634;28;20069;-84
2022/02/18 05:28:42;;;;;;;20.40;4.60;;;;;;;6.76;82.53;100053.97;5028083;28;20061;-83
2022/02/18 05:31:08;;;;;;;13.90;4.40;;;;;;;6.81;81.76;100035.34;5030524;28;20084;-83
2022/02/18 05:33:36;;;;;;;23.75;5.45;;;;;;;6.86;81.87;100041.72;5023828;28;20061;-84
2022/02/18 05:36:03;;;;;;;19.10;4.70;;;;;;;6.92;82.20;100040.34;5023177;28;20041;-84
2022/02/18 05:38:30;;;;;;;20.92;4.68;;;;;;;6.93;81.83;100040.19;5023010;28;20050;-84
2022/02/18 05:40:57;;;;;;;24.65;5.15;;;;;;;6.97;82.40;100035.50;5020635;28;20050;-84
2022/02/18 05:43:24;;;;;;;16.92;4.65;;;;;;;7.03;82.48;100026.31;5031586;28;20050;-86
2022/02/18 05:45:50;;;;;;;19.40;4.85;;;;;;;7.02;82.71;100022.06;5027069;28;20049;-83
2022/02/18 05:48:17;;;;;;;16.90;4.65;;;;;;;7.10;82.42;100022.13;5022247;28;20050;-81
2022/02/18 05:50:45;;;;;;;20.95;5.60;;;;;;;7.14;82.47;100007.84;5023355;28;20194;-84
2022/02/18 05:53:12;;;;;;;23.10;5.63;;;;;;;7.26;82.04;99991.03;5021272;28;20104;-84
2022/02/18 05:55:41;;;;;;;26.10;5.72;;;;;;;7.28;82.65;100002.94;5021649;28;20042;-83
2022/02/18 05:58:08;;;;;;;23.48;5.40;;;;;;;7.16;83.45;99995.50;5021222;28;20141;-84
2022/02/18 06:00:35;;;;;;;33.92;5.93;;;;;;;7.09;83.96;99992.69;5021407;28;20050;-82
2022/02/18 06:03:01;;;;;;;19.25;5.15;;;;;;;6.89;84.53;99981.63;5020190;28;20076;-83
2022/02/18 06:05:28;;;;;;;15.30;5.05;;;;;;;6.85;85.64;99977.69;5019816;28;20425;-83
2022/02/18 06:07:56;;;;;;;22.75;5.20;;;;;;;6.82;85.61;99958.97;5020440;28;20129;-83
2022/02/18 06:10:26;;;;;;;19.42;5.32;;;;;;;6.78;85.68;99955.84;5018863;28;20132;-83
2022/02/18 06:12:52;;;;;;;19.67;5.85;;;;;;;6.73;87.12;99957.25;5017216;28;20076;-84
2022/02/18 06:15:22;;;;;;;18.33;5.43;;;;;;;6.61;87.48;99928.06;5022193;28;20428;-83
2022/02/18 06:17:48;;;;;;;21.92;5.90;;;;;;;6.65;87.52;99924.19;5020507;28;20049;-83
2022/02/18 06:20:15;;;;;;;21.60;6.30;;;;;;;6.65;87.75;99918.97;5020301;28;20057;-83
2022/02/18 06:22:42;;;;;;;22.40;6.57;;;;;;;6.55;88.32;99900.06;5019232;28;20137;-83
2022/02/18 06:25:11;;;;;;;22.30;6.13;;;;;;;6.61;89.05;99897.69;5019914;28;20050;-83
2022/02/18 06:27:40;;;;;;;19.45;5.53;;;;;;;6.64;89.17;99896.53;5019011;28;20058;-83
2022/02/18 06:30:11;;;;;;;19.02;5.38;;;;;;;6.58;89.54;99871.97;5020007;28;20110;-85
2022/02/18 06:32:39;;;;;;;25.05;5.80;;;;;;;6.55;90.13;99856.69;5020691;28;20046;-84
2022/02/18 06:35:07;;;;;;;24.83;5.53;;;;;;;6.62;90.44;99862.91;5020342;28;20104;-80
2022/02/18 06:37:36;;;;;;;32.03;5.85;;;;;;;6.61;90.56;99850.06;5020842;28;20053;-83
2022/02/18 06:40:03;;;;;;;34.92;6.32;;;;;;;6.71;90.69;99855.97;5052251;23;20116;-81
2022/02/18 06:42:31;;;;;;;26.45;5.65;;;;;;;6.74;91.01;99849.66;5051510;28;20077;-81
2022/02/18 06:44:57;;;;;;;25.08;5.53;;;;;;;6.68;90.38;99827.69;5060872;28;20093;-80
2022/02/18 06:47:24;;;;;;;31.17;7.00;;;;;;;6.87;90.67;99832.72;5060394;28;20088;-79
2022/02/18 06:49:51;;;;;;;18.30;5.47;;;;;;;6.89;90.36;99832.56;5052761;28;20046;-79
2022/02/18 06:52:17;;;;;;;20.17;5.45;;;;;;;6.89;90.27;99828.19;5040738;28;20302;-79
2022/02/18 06:54:44;;;;;;;26.17;6.38;;;;;;;6.93;90.27;99819.13;5043419;28;20128;-81
2022/02/18 06:57:11;;;;;;;31.63;7.22;;;;;;;6.91;90.39;99805.44;5039681;28;20156;-79
2022/02/18 06:59:39;;;;;;;28.23;6.43;;;;;;;6.93;90.05;99807.88;5032385;28;20060;-80
2022/02/18 07:02:05;;;;;;;22.13;5.82;;;;;;;6.96;89.94;99798.00;5022416;28;20113;-80
2022/02/18 07:04:32;;;;;;;25.48;7.18;;;;;;;6.95;90.41;99795.56;5018194;28;20155;-79
2022/02/18 07:06:59;;;;;;;24.88;6.40;;;;;;;6.96;90.10;99795.41;5015613;28;20136;-79
2022/02/18 07:09:28;;;;;;;25.88;6.40;;;;;;;6.97;90.67;99791.00;5014048;28;20507;-80
2022/02/18 07:11:55;;;;;;;28.85;5.75;;;;;;;6.99;90.74;99781.28;4982379;28;20057;-78
2022/02/18 07:14:22;;;;;;;26.45;6.20;;;;;;;6.99;91.45;99766.50;5016916;28;20088;-80
2022/02/18 07:16:51;;;;;;;24.88;6.18;;;;;;;7.05;91.33;99774.66;5017285;28;20077;-79
2022/02/18 07:19:18;;;;;;;30.88;6.60;;;;;;;7.08;90.87;99767.34;5016475;28;20112;-80
2022/02/18 07:21:45;;;;;;;28.73;7.57;;;;;;;7.15;91.22;99762.31;5017024;28;20173;-80
2022/02/18 07:24:14;;;;;;;24.55;6.57;;;;;;;7.15;90.92;99751.91;5017726;28;20046;-80
2022/02/18 07:26:41;;;;;;;26.42;6.97;;;;;;;7.20;90.56;99762.66;5019202;28;20085;-81
2022/02/18 07:29:07;;;;;;;28.27;7.55;;;;;;;7.20;90.37;99752.25;5018692;28;20057;-79
2022/02/18 07:31:35;;;;;;;22.95;6.18;;;;;;;7.32;90.14;99743.22;5019241;28;20054;-80
2022/02/18 07:34:03;;;;;;;26.08;6.88;;;;;;;7.29;89.66;99736.53;5019583;28;20081;-82
2022/02/18 07:36:30;;;;;;;23.17;7.00;;;;;;;7.36;90.24;99741.13;5019472;28;20093;-81
2022/02/18 07:38:56;;;;;;;35.92;7.05;;;;;;;7.39;89.92;99736.41;5019850;28;20583;-81
2022/02/18 07:41:23;;;;;;;25.95;8.10;;;;;;;7.47;89.66;99740.84;5019506;28;20092;-80
2022/02/18 07:43:49;;;;;;;22.33;7.00;;;;;;;7.46;89.65;99719.19;5019659;28;20129;-81
2022/02/18 07:46:19;;;;;;;28.55;6.63;;;;;;;7.45;89.65;99716.75;5021638;28;20080;-82
2022/02/18 07:48:57;;;;;;;26.10;8.30;;;;;;;7.50;89.45;99697.09;5024573;28;20112;-82
2022/02/18 07:51:48;;;;;;;26.45;6.38;;;;;;;7.56;89.39;99686.00;5025566;28;20045;-83
2022/02/18 07:54:26;;;;;;;30.45;9.38;;;;;;;7.51;89.52;99690.91;4964745;28;20072;-83
2022/02/18 07:56:59;;;;;;;33.60;7.53;;;;;;;7.56;89.39;99669.59;5024328;28;20412;-83
2022/02/18 07:59:31;;;;;;;30.92;12.55;;;;;;;7.58;89.32;99668.44;5025528;28;20127;-83
2022/02/18 08:02:08;;;;;;;17.70;4.88;;;;;;;7.68;88.55;99646.66;5024854;28;20377;-84
2022/02/18 08:04:37;;;;;;;29.85;6.75;;;;;;;7.81;88.67;99652.22;5017232;28;20049;-82
2022/02/18 08:07:52;;;;;;;24.48;6.53;;;;;;;7.84;87.38;99631.06;5023693;28;20072;-82
2022/02/18 08:11:09;;;;;;;26.55;6.47;;;;;;;8.04;87.40;99636.72;5026130;28;20045;-83
2022/02/18 08:14:15;;;;;;;20.35;6.85;;;;;;;8.21;86.56;99626.13;4941811;28;20054;-85
2022/02/18 08:17:30;;;;;;;17.02;5.72;;;;;;;8.26;86.37;99597.78;5024707;28;20475;-83
2022/02/18 08:21:05;;;;;;;18.40;7.75;;;;;;;8.43;86.28;99622.06;5025436;28;20542;-84
2022/02/18 08:24:42;;;;;;;24.08;6.50;;;;;;;8.48;85.91;99603.31;4948325;28;20135;-83
2022/02/18 08:31:02;;;;;;;19.73;5.78;;;;;;;8.50;85.95;99576.09;4982256;28;20043;-84
2022/02/18 08:33:56;;;;;;;16.60;6.10;;;;;;;8.70;86.77;99586.13;4981406;28;20054;-83
2022/02/18 08:36:43;;;;;;;17.23;4.90;;;;;;;8.74;86.31;99588.22;4974615;28;20066;-83
2022/02/18 08:42:44;;;;;;;18.52;4.78;;;;;;;8.88;86.21;99579.69;4944196;28;20067;-82
2022/02/18 08:45:27;;;;;;;15.40;4.75;;;;;;;8.94;85.41;99570.38;4983095;28;20058;-84
2022/02/18 08:54:43;;;;;;;19.65;6.13;;;;;;;9.06;85.49;99549.88;4966284;28;20075;-85
2022/02/18 08:57:23;;;;;;;17.23;4.63;;;;;;;9.11;85.46;99531.91;5030321;28;20065;-82
2022/02/18 08:59:52;;;;;;;9.32;4.20;;;;;;;9.14;85.41;99527.16;5042904;28;20053;-83
2022/02/18 09:05:33;;;;;;;13.50;4.07;;;;;;;9.28;86.04;99538.66;5045604;28;20063;-84
2022/02/18 09:08:41;;;;;;;8.68;3.53;;;;;;;9.29;86.21;99504.56;5049983;28;20064;-82
2022/02/18 09:21:40;;;;;;;6.37;2.40;;;;;;;9.85;85.19;99483.31;5009169;28;20054;-84
2022/02/18 09:27:46;;;;;;;28.52;14.80;;;;;;;9.85;85.86;99475.50;5023790;28;20132;-85
2022/02/18 09:33:42;;;;;;;4.47;2.65;;;;;;;10.12;85.45;99459.16;4990631;28;20064;-84
2022/02/18 09:36:38;;;;;;;8.18;5.75;;;;;;;10.24;85.45;99446.47;5024818;28;20046;-84
2022/02/18 09:49:39;;;;;;;6.28;3.90;;;;;;;10.73;85.36;99420.47;4872723;29;20144;-85
2022/02/18 09:58:51;;;;;;;4.43;3.25;;;;;;;10.73;84.69;99376.00;4926315;29;20361;-84
2022/02/18 10:01:19;;;;;;;5.88;3.90;;;;;;;10.85;84.60;99363.22;4930943;29;20222;-81
2022/02/18 10:12:50;;;;;;;9.73;7.53;;;;;;;11.18;83.73;99363.47;4889378;29;20780;-84
2022/02/18 10:22:31;;;;;;;12.27;10.65;;;;;;;11.21;83.43;99336.91;4801389;29;20082;-84
2022/02/18 10:29:02;;;;;;;6.22;4.45;;;;;;;11.37;83.47;99328.72;4917583;29;20044;-83
2022/02/18 11:05:44;;;;;;;0.85;0.85;;;;;;;12.57;77.95;99247.63;4947861;29;20052;-84
2022/02/18 11:21:19;;;;;;;1.55;1.33;;;;;;;12.37;77.26;99214.53;5046556;28;20025;-85
2022/02/18 11:23:48;;;;;;;5.25;2.67;;;;;;;12.42;77.17;99212.09;5038203;28;20051;-85
2022/02/18 11:26:17;;;;;;;1.73;1.48;;;;;;;12.48;76.60;99214.72;5038758;28;20293;-84
2022/02/18 11:28:48;;;;;;;1.83;1.10;;;;;;;12.41;75.77;99179.00;5035285;28;20053;-85
2022/02/18 11:31:21;;;;;;;1.13;0.82;;;;;;;12.43;75.91;99166.50;5021320;28;20064;-85
2022/02/18 11:33:53;;;;;;;;;;;;;;;12.60;75.90;99175.56;5021863;28;20061;-85
2022/02/18 11:36:58;;;;;;;3.10;2.50;;;;;;;12.46;75.74;99151.16;5019382;28;19944;-85
2022/02/18 11:39:55;;;;;;;1.55;1.45;;;;;;;12.55;75.18;99147.31;5006669;28;20054;-85
2022/02/18 11:42:32;;;;;;;1.95;1.33;;;;;;;12.51;74.72;99126.94;5019251;28;20520;-84
2022/02/18 11:45:14;;;;;;;4.47;3.13;;;;;;;12.77;75.31;99150.47;5019209;28;20558;-86
2022/02/18 11:47:41;;;;;;;1.90;1.50;;;;;;;12.80;74.55;99130.91;5018769;28;20042;-85
2022/02/18 11:50:13;;;;;;;1.33;1.20;;;;;;;12.73;75.25;99130.94;5017360;28;20068;-85
2022/02/18 11:52:49;;;;;;;2.83;0.80;;;;;;;12.89;73.46;99112.09;5017474;28;20060;-84
2022/02/18 11:55:46;;;;;;;2.90;1.08;;;;;;;13.01;73.10;99106.19;5010816;28;20102;-85
2022/02/18 11:58:17;;;;;;;0.60;0.60;;;;;;;13.04;72.57;99101.34;4997882;28;20145;-86
2022/02/18 12:01:13;;;;;;;0.70;0.70;;;;;;;13.17;72.25;99113.63;5003908;28;20050;-85
2022/02/18 12:04:22;;;;;;;2.17;0.77;;;;;;;13.03;72.75;99085.78;4999798;28;20050;-84
2022/02/18 12:07:25;;;;;;;0.60;0.60;;;;;;;13.08;71.81;99059.72;4998928;28;20051;-84
2022/02/18 12:10:27;;;;;;;1.45;0.98;;;;;;;13.15;71.46;99061.28;5000076;28;20145;-84
2022/02/18 12:13:21;;;;;;;0.82;0.82;;;;;;;13.32;71.34;99082.63;5001103;28;20077;-84
2022/02/18 12:19:22;;;;;;;1.67;1.50;;;;;;;13.30;71.69;99063.63;5000835;28;20062;-85
2022/02/18 12:22:13;;;;;;;2.03;1.20;;;;;;;13.24;71.11;99033.75;4986674;28;20069;-85
2022/02/18 12:24:46;;;;;;;1.10;0.70;;;;;;;13.38;71.72;99039.75;5004905;28;20046;-85
2022/02/18 12:27:34;;;;;;;;;;;;;;;13.53;70.42;99037.63;5002871;28;20100;-84
2022/02/18 12:30:40;;;;;;;1.73;0.98;;;;;;;13.74;69.61;99017.22;5017608;23;19921;-85
2022/02/18 12:33:09;;;;;;;0.77;0.60;;;;;;;13.67;69.92;99019.13;5019944;28;20064;-84
2022/02/18 12:35:40;;;;;;;2.97;0.70;;;;;;;13.73;69.62;98997.22;5018996;28;20061;-86
2022/02/18 12:38:18;;;;;;;3.97;1.30;;;;;;;13.91;69.62;99021.72;5019513;28;20261;-85
2022/02/18 12:40:47;;;;;;;0.85;0.70;;;;;;;13.69;69.41;98999.50;5020441;28;20054;-86
2022/02/18 12:43:18;;;;;;;2.47;1.15;;;;;;;13.73;69.57;98970.94;5026034;28;20064;-85
2022/02/18 12:46:03;;;;;;;2.03;0.98;;;;;;;13.77;69.71;98975.53;5018636;28;20050;-85
2022/02/18 12:48:43;;;;;;;1.80;0.90;;;;;;;14.02;69.48;98988.66;5018141;28;20409;-85
2022/02/18 12:51:14;;;;;;;1.65;0.98;;;;;;;14.02;68.85;98961.56;5018775;28;20089;-84
2022/02/18 12:53:52;;;;;;;0.65;0.65;;;;;;;13.95;68.86;98956.34;5018969;28;20046;-85
2022/02/18 12:56:48;;;;;;;0.63;0.63;;;;;;;14.12;68.02;98961.84;5017934;28;20054;-85
2022/02/18 12:59:49;;;;;;;0.55;0.55;;;;;;;13.87;68.74;98943.50;4998576;23;20093;-84
2022/02/18 13:03:01;;;;;;;0.90;0.85;;;;;;;13.84;69.32;98943.94;5037616;28;20165;-84
2022/02/18 13:35:19;;;;;;;2.92;1.15;;;;;;;13.83;69.83;98832.69;4972700;28;20105;-86
2022/02/18 13:41:09;;;;;;;2.65;0.70;;;;;;;13.92;69.45;98825.31;5070876;23;20083;-90
2022/02/18 13:43:38;;;;;;;0.80;0.80;;;;;;;14.03;69.00;98811.44;5043568;28;20057;-91
2022/02/18 13:46:06;;;;;;;0.55;0.55;;;;;;;14.07;69.08;98817.06;5037570;28;20113;-90
2022/02/18 13:48:34;;;;;;;0.80;0.60;;;;;;;14.16;69.04;98790.22;5045098;28;20040;-90
2022/02/18 13:51:03;;;;;;;2.72;0.77;;;;;;;14.07;68.74;98790.75;5046470;28;20064;-91
2022/02/18 13:53:32;;;;;;;2.45;1.02;;;;;;;14.12;68.71;98793.53;5046652;28;20069;-91
2022/02/18 13:56:00;;;;;;;0.50;0.50;;;;;;;14.00;68.80;98775.06;5048468;28;20243;-90
2022/02/18 13:58:30;;;;;;;0.60;0.60;;;;;;;14.09;68.86;98778.97;5046387;28;20050;-91
2022/02/18 14:00:57;;;;;;;1.65;0.73;;;;;;;14.15;68.71;98751.78;5046416;28;20050;-91
2022/02/18 14:03:26;;;;;;;2.03;0.90;;;;;;;14.17;68.72;98776.03;5045586;28;20053;-90
2022/02/18 14:06:12;;;;;;;1.88;1.00;;;;;;;13.93;69.16;98729.66;5046778;28;20076;-92
2022/02/18 14:08:38;;;;;;;1.05;0.60;;;;;;;14.16;68.19;98752.59;5048258;28;20109;-91
2022/02/18 14:11:12;;;;;;;2.90;0.95;;;;;;;14.20;68.63;98769.50;5046446;28;20033;-90
2022/02/18 14:13:40;;;;;;;1.38;0.75;;;;;;;14.12;69.01;98767.22;5046156;28;20049;-91
2022/02/18 14:16:13;;;;;;;2.25;0.88;;;;;;;13.93;69.59;98763.81;5031433;28;20053;-91
2022/02/18 14:19:07;;;;;;;0.95;0.68;;;;;;;14.03;69.23;98784.34;5028952;28;20056;-91
2022/02/18 14:21:35;;;;;;;1.90;0.90;;;;;;;13.90;70.17;98787.94;4985400;28;20049;-91
2022/02/18 14:24:03;;;;;;;5.10;1.48;;;;;;;13.72;72.09;98798.47;5028358;28;20050;-90
2022/02/18 14:26:33;;;;;;;9.90;2.53;;;;;;;12.94;81.18;98917.19;5028466;28;20054;-90
2022/02/18 14:29:02;;;;;;;4.97;1.98;;;;;;;10.15;88.15;98903.88;5028923;28;20105;-90
2022/02/18 14:31:31;;;;;;;8.35;2.00;;;;;;;9.69;87.54;98914.91;5030220;28;20050;-90
2022/02/18 14:34:04;;;;;;;5.53;1.90;;;;;;;9.47;87.36;98921.16;5032708;28;20050;-90
2022/02/18 14:36:34;;;;;;;5.45;1.38;;;;;;;9.30;84.42;98923.28;5050791;28;20132;-90
2022/02/18 14:39:05;;;;;;;4.53;1.88;;;;;;;9.39;82.31;98948.25;5047646;28;20065;-92
2022/02/18 14:41:32;;;;;;;4.82;1.58;;;;;;;9.36;81.33;98953.84;5045006;28;20061;-91
2022/02/18 14:44:01;;;;;;;3.30;1.05;;;;;;;9.43;79.24;98941.66;5028925;28;20112;-90
2022/02/18 14:46:28;;;;;;;4.43;1.55;;;;;;;9.37;78.94;98903.25;5045406;28;20058;-90